Time;durP1;ratioP1;P1;durP2;ratioP2;P2;SDS_P1;SDS_P2;PMS_P1;PMS_P2;Temp;Humidity;BMP_temperature;BMP_pressure;BME280_temperature;BME280_humidity;BME280_pressure;Samples;Min_cycle;Max_cycle;Signal;HPM_P1;HPM_P2
2022/04/19 03:01:01;;;;;;;0.70;0.67;;;10.40;58.40;;;;;;5798618;23;20833;-77
2022/04/19 03:03:29;;;;;;;0.70;0.63;;;10.40;58.50;;;;;;4898293;29;20528;-77
2022/04/19 03:05:56;;;;;;;0.70;0.67;;;10.30;58.60;;;;;;4898281;29;20897;-77
2022/04/19 03:08:24;;;;;;;0.70;0.70;;;10.20;58.70;;;;;;4898218;29;20976;-77
2022/04/19 03:10:51;;;;;;;0.70;0.70;;;10.10;58.90;;;;;;4898411;29;20551;-77
2022/04/19 03:13:18;;;;;;;0.60;0.60;;;10.10;59.10;;;;;;4920989;23;20545;-71
2022/04/19 03:15:44;;;;;;;0.70;0.70;;;10.10;59.20;;;;;;4898080;29;20434;-72
2022/04/19 03:18:12;;;;;;;0.70;0.67;;;10.00;59.30;;;;;;4897593;29;20449;-73
2022/04/19 03:20:41;;;;;;;0.70;0.60;;;10.00;59.20;;;;;;4897689;29;20945;-73
2022/04/19 03:28:36;;;;;;;0.63;0.60;;;9.80;59.80;;;;;;4897858;29;20413;-71
2022/04/19 03:31:02;;;;;;;0.80;0.70;;;9.70;59.90;;;;;;4897802;29;20540;-72
2022/04/19 03:33:31;;;;;;;0.70;0.60;;;9.70;60.00;;;;;;4897377;29;21033;-73
2022/04/19 03:35:59;;;;;;;0.70;0.70;;;9.70;60.10;;;;;;4901228;29;20915;-73
2022/04/19 03:38:25;;;;;;;0.70;0.60;;;9.70;60.10;;;;;;4901797;29;20458;-73
2022/04/19 03:40:52;;;;;;;0.70;0.60;;;9.60;60.20;;;;;;4901481;29;20453;-73
2022/04/19 03:43:19;;;;;;;0.70;0.60;;;9.60;60.40;;;;;;4901521;29;20475;-73
2022/04/19 03:45:46;;;;;;;0.70;0.60;;;9.60;60.50;;;;;;4901364;29;20458;-73
2022/04/19 03:48:13;;;;;;;3.13;0.80;;;9.60;60.60;;;;;;4901418;29;20461;-73
2022/04/19 03:50:42;;;;;;;0.60;0.60;;;9.60;60.70;;;;;;4901419;29;20540;-73
2022/04/19 03:53:09;;;;;;;0.63;0.60;;;9.60;60.70;;;;;;4901278;29;20445;-73
2022/04/19 03:55:35;;;;;;;0.60;0.60;;;9.60;60.80;;;;;;4901280;29;20453;-73
2022/04/19 03:58:03;;;;;;;0.60;0.60;;;9.60;60.90;;;;;;4901260;29;20481;-73
2022/04/19 04:00:30;;;;;;;0.70;0.70;;;9.60;60.90;;;;;;4901176;29;20453;-73
2022/04/19 04:02:57;;;;;;;0.70;0.60;;;9.60;61.10;;;;;;4900705;29;20485;-73
2022/04/19 04:05:24;;;;;;;0.70;0.67;;;9.60;61.10;;;;;;4900816;29;20897;-73
2022/04/19 04:07:52;;;;;;;0.70;0.60;;;9.60;61.10;;;;;;4900765;29;20933;-73
2022/04/19 04:10:19;;;;;;;0.70;0.70;;;9.60;61.10;;;;;;4900743;29;20953;-73
2022/04/19 04:12:46;;;;;;;0.70;0.70;;;9.50;61.10;;;;;;4901005;29;20456;-73
2022/04/19 04:15:12;;;;;;;0.80;0.70;;;9.50;61.30;;;;;;4900777;29;20592;-73
2022/04/19 04:17:39;;;;;;;0.70;0.70;;;9.50;61.30;;;;;;4901106;29;20451;-73
2022/04/19 04:20:07;;;;;;;0.70;0.70;;;9.50;61.40;;;;;;4901325;29;20505;-73
2022/04/19 04:22:34;;;;;;;0.70;0.60;;;9.50;61.70;;;;;;4900737;29;20546;-73
2022/04/19 04:25:03;;;;;;;0.70;0.70;;;9.50;61.70;;;;;;4900731;29;20540;-73
2022/04/19 04:27:30;;;;;;;0.70;0.60;;;9.50;61.70;;;;;;4900677;29;20457;-73
2022/04/19 04:29:56;;;;;;;0.70;0.70;;;9.40;61.70;;;;;;4900735;29;20472;-73
2022/04/19 04:32:23;;;;;;;0.70;0.60;;;9.40;62.20;;;;;;4900661;29;20476;-73
2022/04/19 04:34:50;;;;;;;0.80;0.80;;;9.40;62.10;;;;;;4900523;29;20477;-73
2022/04/19 04:37:16;;;;;;;0.70;0.70;;;9.40;62.20;;;;;;4900586;29;20560;-73
2022/04/19 04:39:43;;;;;;;1.20;1.10;;;9.50;62.40;;;;;;4900508;29;20457;-73
2022/04/19 04:42:11;;;;;;;0.70;0.70;;;9.50;62.20;;;;;;4900317;29;20489;-73
2022/04/19 04:44:37;;;;;;;0.70;0.70;;;9.50;62.00;;;;;;4900344;29;20473;-72
2022/04/19 04:49:49;;;;;;;0.90;0.77;;;9.60;62.10;;;;;;4900177;29;20723;-73
2022/04/19 04:52:16;;;;;;;0.80;0.80;;;9.70;62.10;;;;;;4899916;29;20949;-74
2022/04/19 04:54:44;;;;;;;1.00;0.80;;;9.70;61.80;;;;;;4900204;29;20533;-72
2022/04/19 04:57:12;;;;;;;0.60;0.60;;;9.80;61.60;;;;;;4899801;29;20453;-71
2022/04/19 04:59:39;;;;;;;0.70;0.60;;;9.80;61.50;;;;;;4899988;29;20441;-72
2022/04/19 05:02:06;;;;;;;0.60;0.60;;;9.90;61.50;;;;;;4900020;29;20493;-72
2022/04/19 05:04:33;;;;;;;0.80;0.70;;;9.90;61.40;;;;;;4899718;29;20993;-72
2022/04/19 05:07:01;;;;;;;0.63;0.60;;;9.90;61.20;;;;;;4899774;29;20948;-72
2022/04/19 05:09:27;;;;;;;0.60;0.60;;;10.00;61.10;;;;;;4899732;29;20553;-72
2022/04/19 05:11:54;;;;;;;0.70;0.63;;;10.10;61.10;;;;;;4899946;29;21009;-72
2022/04/19 05:14:23;;;;;;;0.70;0.70;;;10.20;61.10;;;;;;4899859;29;20474;-72
2022/04/19 05:16:50;;;;;;;0.70;0.60;;;10.10;61.10;;;;;;4899882;29;20461;-72
2022/04/19 05:19:16;;;;;;;0.70;0.70;;;10.20;61.10;;;;;;4899913;29;20493;-72
2022/04/19 05:21:43;;;;;;;0.80;0.80;;;10.20;61.10;;;;;;4899481;29;20485;-72
2022/04/19 05:24:10;;;;;;;0.63;0.60;;;10.20;61.30;;;;;;4899643;29;20553;-72
2022/04/19 05:26:37;;;;;;;0.70;0.63;;;10.30;61.60;;;;;;4899618;29;20449;-72
2022/04/19 05:29:04;;;;;;;0.70;0.70;;;10.30;61.50;;;;;;4899639;29;20462;-72
2022/04/19 05:31:32;;;;;;;0.90;0.67;;;10.40;61.30;;;;;;4899611;29;20453;-72
2022/04/19 05:33:59;;;;;;;0.70;0.70;;;10.50;61.00;;;;;;4899439;29;20477;-72
2022/04/19 05:36:26;;;;;;;0.80;0.80;;;10.70;61.00;;;;;;4899585;29;20461;-72
2022/04/19 05:38:53;;;;;;;0.70;0.70;;;10.90;61.40;;;;;;4899141;29;21033;-72
2022/04/19 05:41:20;;;;;;;1.30;0.70;;;10.90;61.10;;;;;;4899404;29;20517;-72
2022/04/19 05:43:47;;;;;;;0.70;0.60;;;10.80;60.70;;;;;;4899271;29;20526;-72
2022/04/19 05:46:16;;;;;;;0.73;0.70;;;10.80;61.10;;;;;;4899580;29;20458;-73
2022/04/19 05:48:44;;;;;;;0.70;0.70;;;10.70;61.00;;;;;;4899223;29;20544;-72
2022/04/19 05:51:11;;;;;;;2.30;0.80;;;10.70;61.40;;;;;;4899687;29;20989;-72
2022/04/19 05:53:38;;;;;;;0.70;0.63;;;10.90;61.50;;;;;;4899079;29;20477;-72
2022/04/19 05:56:05;;;;;;;1.10;0.80;;;11.20;61.50;;;;;;4899124;29;20454;-72
2022/04/19 05:58:31;;;;;;;0.80;0.73;;;11.40;61.80;;;;;;4898166;29;20454;-72
2022/04/19 06:00:59;;;;;;;0.77;0.73;;;11.60;61.20;;;;;;4899047;29;20533;-72
2022/04/19 06:06:11;;;;;;;0.80;0.70;;;11.70;60.50;;;;;;4899253;29;20418;-72
2022/04/19 06:08:37;;;;;;;0.70;0.67;;;11.90;60.40;;;;;;4898947;29;20449;-72
2022/04/19 06:11:05;;;;;;;0.70;0.70;;;12.10;61.00;;;;;;4898899;29;20469;-72
2022/04/19 06:13:33;;;;;;;0.80;0.80;;;12.20;59.10;;;;;;4898609;29;20497;-73
2022/04/19 06:15:59;;;;;;;0.70;0.67;;;12.40;58.30;;;;;;4898988;29;20464;-72
2022/04/19 06:18:35;;;;;;;0.90;0.70;;;12.60;58.80;;;;;;5168226;27;20300;-73
2022/04/19 06:21:04;;;;;;;0.70;0.70;;;12.80;58.50;;;;;;5152258;27;20469;-73
2022/04/19 06:23:31;;;;;;;0.70;0.70;;;13.20;57.60;;;;;;5152169;27;20514;-72
2022/04/19 06:25:58;;;;;;;0.70;0.70;;;13.30;57.60;;;;;;5151934;27;20511;-73
2022/04/19 06:28:25;;;;;;;0.70;0.60;;;13.30;58.20;;;;;;5151678;27;20948;-73
2022/04/19 06:30:51;;;;;;;0.70;0.70;;;13.40;58.40;;;;;;5236633;22;20480;-73
2022/04/19 06:33:18;;;;;;;0.70;0.70;;;13.50;57.20;;;;;;5090306;28;20441;-72
2022/04/19 06:35:47;;;;;;;0.70;0.63;;;13.50;57.40;;;;;;5091534;28;20441;-73
2022/04/19 06:38:14;;;;;;;0.70;0.70;;;13.60;57.50;;;;;;5090514;28;20480;-73
2022/04/19 06:40:41;;;;;;;0.77;0.77;;;13.80;57.30;;;;;;5090969;28;20505;-73
2022/04/19 06:43:07;;;;;;;0.80;0.80;;;14.10;57.30;;;;;;5090316;28;20455;-73
2022/04/19 06:45:34;;;;;;;0.87;0.87;;;14.50;56.80;;;;;;5089938;28;20865;-73
2022/04/19 06:48:02;;;;;;;0.70;0.60;;;14.80;54.50;;;;;;5090107;28;20457;-74
2022/04/19 06:50:30;;;;;;;0.70;0.70;;;14.80;54.10;;;;;;5089796;28;20464;-74
2022/04/19 06:52:58;;;;;;;0.63;0.60;;;14.30;52.70;;;;;;5089876;28;20451;-73
2022/04/19 06:55:25;;;;;;;0.73;0.70;;;14.40;53.30;;;;;;5089954;28;20444;-74
2022/04/19 06:57:53;;;;;;;0.70;0.70;;;14.70;49.40;;;;;;5089650;28;20566;-73
2022/04/19 07:00:20;;;;;;;0.70;0.70;;;14.80;49.60;;;;;;5089336;28;20831;-73
2022/04/19 07:02:48;;;;;;;0.77;0.77;;;15.10;49.90;;;;;;5089721;28;20452;-74
2022/04/19 07:05:15;;;;;;;0.70;0.70;;;15.30;49.10;;;;;;5090229;28;20449;-74
2022/04/19 07:07:43;;;;;;;0.60;0.60;;;15.30;48.00;;;;;;5089702;28;20445;-73
2022/04/19 07:10:11;;;;;;;0.70;0.60;;;15.10;49.00;;;;;;5089173;28;20459;-73
2022/04/19 07:12:39;;;;;;;0.67;0.60;;;15.10;50.90;;;;;;5089462;28;20484;-74
2022/04/19 07:15:07;;;;;;;0.60;0.60;;;15.40;49.70;;;;;;5089656;28;20472;-74
2022/04/19 07:17:37;;;;;;;0.80;0.80;;;15.60;51.10;;;;;;5088969;28;20563;-73
2022/04/19 07:28:18;;;;;;;0.80;0.60;;;16.80;48.80;;;;;;5084621;28;20413;-73
2022/04/19 07:30:46;;;;;;;0.80;0.80;;;17.30;47.00;;;;;;5075713;28;20527;-74
2022/04/19 07:33:12;;;;;;;0.70;0.70;;;17.70;46.70;;;;;;5075844;28;20584;-74
2022/04/19 07:35:39;;;;;;;0.80;0.80;;;18.10;45.80;;;;;;5075503;28;20445;-74
2022/04/19 07:38:06;;;;;;;0.67;0.60;;;18.20;45.40;;;;;;5075355;28;20586;-74
2022/04/19 07:40:35;;;;;;;0.70;0.63;;;18.30;46.70;;;;;;5075303;28;20469;-74
2022/04/19 07:43:02;;;;;;;1.30;0.80;;;18.30;45.00;;;;;;5075360;28;20489;-74
2022/04/19 07:45:29;;;;;;;0.70;0.70;;;17.70;45.50;;;;;;5075429;28;20449;-74
2022/04/19 07:47:55;;;;;;;0.80;0.70;;;17.30;46.70;;;;;;5075394;28;20444;-74
2022/04/19 07:50:22;;;;;;;0.70;0.70;;;17.20;46.30;;;;;;5075354;28;20469;-74
2022/04/19 07:52:49;;;;;;;1.03;0.80;;;17.40;47.80;;;;;;5074914;28;20804;-72
2022/04/19 07:55:15;;;;;;;0.70;0.70;;;17.90;47.70;;;;;;5075195;28;20802;-73
2022/04/19 07:57:43;;;;;;;0.70;0.70;;;18.30;45.00;;;;;;5075174;28;20481;-74
2022/04/19 08:00:11;;;;;;;0.80;0.80;;;18.60;43.80;;;;;;5075053;28;20448;-74
2022/04/19 08:02:38;;;;;;;0.70;0.70;;;18.60;43.80;;;;;;5075041;28;20449;-72
2022/04/19 08:05:06;;;;;;;0.73;0.73;;;18.70;42.50;;;;;;5075018;28;20441;-71
2022/04/19 08:07:32;;;;;;;1.17;0.80;;;18.70;42.20;;;;;;5075073;28;20437;-74
2022/04/19 08:10:00;;;;;;;1.47;0.80;;;18.50;43.60;;;;;;5074882;28;20442;-74
2022/04/19 08:12:27;;;;;;;0.73;0.73;;;18.50;44.10;;;;;;5074615;28;20986;-74
2022/04/19 08:14:55;;;;;;;0.70;0.70;;;18.10;44.80;;;;;;5074907;28;20495;-74
2022/04/19 08:17:22;;;;;;;1.17;0.80;;;17.90;46.00;;;;;;5074726;28;20568;-74
2022/04/19 08:19:49;;;;;;;0.80;0.80;;;17.70;45.30;;;;;;5074797;28;20449;-74
2022/04/19 08:22:16;;;;;;;0.77;0.77;;;17.40;46.70;;;;;;5075013;28;20568;-74
2022/04/19 08:24:43;;;;;;;0.70;0.70;;;17.40;46.20;;;;;;5074703;28;21002;-74
2022/04/19 08:27:10;;;;;;;0.70;0.70;;;17.90;48.30;;;;;;5075030;28;20449;-74
2022/04/19 08:29:37;;;;;;;0.70;0.70;;;18.10;45.00;;;;;;5074728;28;20449;-73
2022/04/19 08:32:06;;;;;;;0.80;0.80;;;17.80;45.00;;;;;;5074409;28;21026;-73
2022/04/19 08:34:33;;;;;;;0.70;0.70;;;17.70;46.80;;;;;;5075050;28;20452;-74
2022/04/19 08:37:02;;;;;;;0.70;0.70;;;18.00;44.60;;;;;;5074671;28;20446;-74
2022/04/19 08:39:29;;;;;;;0.70;0.70;;;18.00;44.50;;;;;;5074363;28;20484;-74
2022/04/19 08:41:56;;;;;;;0.77;0.77;;;18.50;44.50;;;;;;5073682;28;20561;-74
2022/04/19 08:44:23;;;;;;;0.70;0.70;;;18.70;43.90;;;;;;5074395;28;20963;-74
2022/04/19 08:46:50;;;;;;;0.73;0.73;;;19.00;42.10;;;;;;5074720;28;20446;-74
2022/04/19 08:49:18;;;;;;;0.70;0.70;;;18.70;42.20;;;;;;5074376;28;20457;-74
2022/04/19 08:51:46;;;;;;;1.10;0.90;;;18.50;45.60;;;;;;5073940;28;20497;-74
2022/04/19 08:59:42;;;;;;;0.87;0.70;;;18.60;43.60;;;;;;5074054;28;20892;-73
2022/04/19 09:02:20;;;;;;;0.80;0.80;;;19.00;43.40;;;;;;5073939;28;20922;-73
2022/04/19 09:04:49;;;;;;;1.03;0.80;;;19.00;43.50;;;;;;5074201;28;20436;-74
2022/04/19 09:07:17;;;;;;;0.70;0.70;;;19.10;42.50;;;;;;5074228;28;20445;-74
2022/04/19 09:09:57;;;;;;;0.80;0.80;;;19.30;40.60;;;;;;5073848;28;20491;-71
2022/04/19 09:12:23;;;;;;;0.80;0.80;;;19.30;43.10;;;;;;5073986;28;20901;-72
2022/04/19 09:14:56;;;;;;;0.70;0.60;;;19.50;41.60;;;;;;5073716;28;20446;-72
2022/04/19 09:17:31;;;;;;;0.70;0.70;;;19.70;39.60;;;;;;5073595;28;20469;-72
2022/04/19 09:20:15;;;;;;;1.00;0.70;;;19.90;39.10;;;;;;5073568;28;20946;-72
2022/04/19 09:22:43;;;;;;;0.70;0.67;;;19.90;39.30;;;;;;5073645;28;20469;-72
2022/04/19 09:25:18;;;;;;;0.67;0.63;;;20.10;38.70;;;;;;5073375;28;20528;-72
2022/04/19 09:27:45;;;;;;;0.70;0.70;;;20.10;38.70;;;;;;5073290;28;20437;-72
2022/04/19 09:30:20;;;;;;;0.80;0.80;;;20.30;40.90;;;;;;5072944;28;20495;-72
2022/04/19 09:33:08;;;;;;;0.70;0.63;;;19.70;39.30;;;;;;5073001;28;20900;-72
2022/04/19 09:35:38;;;;;;;0.70;0.70;;;19.00;40.30;;;;;;5074345;28;20461;-73
2022/04/19 09:38:06;;;;;;;0.87;0.87;;;18.70;42.20;;;;;;5073572;28;20496;-72
2022/04/19 09:40:34;;;;;;;0.90;0.90;;;18.60;43.20;;;;;;5073394;28;20466;-72
2022/04/19 09:43:12;;;;;;;1.00;0.67;;;18.50;43.00;;;;;;5073722;28;20453;-72
2022/04/19 09:45:54;;;;;;;0.80;0.80;;;18.60;42.60;;;;;;5073034;28;20448;-73
2022/04/19 09:48:22;;;;;;;0.70;0.70;;;18.60;44.70;;;;;;5073482;28;20856;-72
2022/04/19 09:50:52;;;;;;;0.70;0.70;;;18.80;43.50;;;;;;5072626;28;20484;-72
2022/04/19 09:53:20;;;;;;;0.80;0.80;;;18.70;42.60;;;;;;5073678;28;20468;-73
2022/04/19 09:55:48;;;;;;;0.73;0.73;;;18.70;42.70;;;;;;5072976;28;20449;-72
2022/04/19 09:58:16;;;;;;;0.87;0.87;;;18.90;42.60;;;;;;5073210;28;20564;-72
2022/04/19 10:00:43;;;;;;;0.70;0.70;;;18.80;41.90;;;;;;5073180;28;20561;-73
2022/04/19 10:08:43;;;;;;;0.83;0.83;;;19.60;41.20;;;;;;5072968;28;20535;-72
2022/04/19 10:11:10;;;;;;;0.80;0.80;;;19.60;41.40;;;;;;5073055;28;20469;-73
2022/04/19 10:13:40;;;;;;;0.80;0.80;;;19.60;40.50;;;;;;5073084;28;20445;-72
2022/04/19 10:16:11;;;;;;;1.00;0.90;;;19.80;41.30;;;;;;5072758;28;20482;-72
2022/04/19 10:18:37;;;;;;;0.80;0.80;;;19.80;42.00;;;;;;5072613;28;20468;-73
2022/04/19 10:21:09;;;;;;;0.70;0.60;;;20.20;42.80;;;;;;5072516;28;20461;-73
2022/04/19 10:23:38;;;;;;;1.17;0.60;;;20.70;38.90;;;;;;5073624;28;20422;-73
2022/04/19 10:26:16;;;;;;;1.00;0.80;;;21.00;35.10;;;;;;5073082;28;20450;-72
2022/04/19 10:28:43;;;;;;;0.73;0.73;;;20.90;37.90;;;;;;5073931;28;20444;-73
2022/04/19 10:31:11;;;;;;;0.77;0.77;;;21.20;37.70;;;;;;5072933;28;20530;-73
2022/04/19 10:33:56;;;;;;;0.70;0.70;;;21.30;35.90;;;;;;5072902;28;20460;-73
2022/04/19 10:36:35;;;;;;;0.70;0.63;;;21.30;35.20;;;;;;5072973;28;20433;-73
2022/04/19 10:39:23;;;;;;;0.80;0.80;;;21.40;35.50;;;;;;5072379;28;20530;-73
2022/04/19 10:41:56;;;;;;;0.80;0.80;;;21.40;35.00;;;;;;5072352;28;20523;-73
2022/04/19 10:44:35;;;;;;;0.70;0.60;;;21.40;34.40;;;;;;5073300;28;20491;-73
2022/04/19 10:47:07;;;;;;;0.70;0.70;;;21.10;36.10;;;;;;5072614;28;20468;-73
2022/04/19 10:49:47;;;;;;;0.70;0.60;;;21.20;34.90;;;;;;5072373;28;20453;-73
2022/04/19 10:52:47;;;;;;;0.63;0.60;;;21.30;36.30;;;;;;5072116;28;20995;-73
2022/04/19 10:55:23;;;;;;;0.70;0.70;;;21.10;37.40;;;;;;5072485;28;20452;-73
2022/04/19 11:00:47;;;;;;;0.70;0.70;;;21.10;36.80;;;;;;5072736;28;20448;-73
2022/04/19 11:03:16;;;;;;;1.00;0.70;;;21.20;34.90;;;;;;5072642;28;20437;-73
2022/04/19 11:05:44;;;;;;;0.70;0.60;;;21.20;36.00;;;;;;5075726;28;20864;-73
2022/04/19 11:08:37;;;;;;;0.63;0.63;;;21.10;36.10;;;;;;5076520;28;20507;-74
2022/04/19 11:11:22;;;;;;;0.70;0.60;;;21.10;36.00;;;;;;5077034;28;20559;-73
2022/04/19 11:14:24;;;;;;;0.70;0.70;;;21.20;35.70;;;;;;5077591;28;20434;-74
2022/04/19 11:16:53;;;;;;;0.60;0.60;;;21.00;37.20;;;;;;5071424;28;20448;-73
2022/04/19 11:19:22;;;;;;;0.70;0.70;;;20.70;37.00;;;;;;5076517;28;21026;-73
2022/04/19 11:21:54;;;;;;;0.60;0.60;;;20.60;36.60;;;;;;5076652;28;20527;-73
2022/04/19 11:24:58;;;;;;;0.60;0.60;;;20.70;36.00;;;;;;5076681;28;20814;-73
2022/04/19 11:28:08;;;;;;;0.70;0.70;;;20.90;36.60;;;;;;5076344;28;20910;-73
2022/04/19 11:30:36;;;;;;;0.60;0.50;;;21.00;34.90;;;;;;5075913;28;20477;-73
2022/04/19 11:33:04;;;;;;;1.20;0.60;;;21.20;36.20;;;;;;5076651;28;20468;-73
2022/04/19 11:35:32;;;;;;;0.70;0.70;;;21.10;35.30;;;;;;5076840;28;20489;-73
2022/04/19 11:38:04;;;;;;;0.60;0.60;;;21.20;35.90;;;;;;5076591;28;20450;-73
2022/04/19 11:48:48;;;;;;;0.70;0.70;;;21.30;35.40;;;;;;5075267;28;20447;-73
2022/04/19 11:51:17;;;;;;;0.70;0.60;;;21.70;36.50;;;;;;5075348;28;20481;-73
2022/04/19 11:53:44;;;;;;;0.73;0.73;;;21.80;34.40;;;;;;5075100;28;20445;-73
2022/04/19 11:56:10;;;;;;;0.70;0.60;;;21.90;33.80;;;;;;5075402;28;20449;-73
2022/04/19 11:58:43;;;;;;;0.60;0.60;;;21.90;34.60;;;;;;5075197;28;20896;-73
2022/04/19 12:01:10;;;;;;;0.60;0.60;;;21.90;35.60;;;;;;5075723;28;20468;-73
2022/04/19 12:03:39;;;;;;;0.70;0.60;;;22.00;34.10;;;;;;5076949;28;20461;-73
2022/04/19 12:06:08;;;;;;;1.33;0.70;;;22.10;35.20;;;;;;5076270;28;20446;-74
2022/04/19 12:08:37;;;;;;;0.80;0.70;;;22.20;34.50;;;;;;5076482;28;20483;-73
2022/04/19 12:11:05;;;;;;;0.67;0.60;;;22.00;34.40;;;;;;5075017;28;20474;-73
2022/04/19 12:13:32;;;;;;;0.87;0.70;;;21.90;33.60;;;;;;5074909;28;20453;-73
2022/04/19 12:16:03;;;;;;;0.70;0.70;;;21.70;34.70;;;;;;5074415;28;20445;-73
2022/04/19 12:18:34;;;;;;;0.70;0.70;;;21.70;35.30;;;;;;5074836;28;20466;-72
2022/04/19 12:21:02;;;;;;;0.70;0.70;;;21.00;36.40;;;;;;5074787;28;20465;-73
2022/04/19 12:23:28;;;;;;;0.70;0.70;;;20.80;36.50;;;;;;5074461;28;20833;-73
2022/04/19 12:26:04;;;;;;;1.00;0.80;;;20.70;37.20;;;;;;5074662;28;20821;-73
2022/04/19 12:28:45;;;;;;;0.73;0.67;;;20.70;37.50;;;;;;5075134;28;20440;-73
2022/04/19 12:31:32;;;;;;;0.70;0.60;;;21.10;37.10;;;;;;5075155;28;20491;-73
2022/04/19 12:33:58;;;;;;;0.73;0.73;;;21.20;36.60;;;;;;5074896;28;20422;-73
2022/04/19 12:36:26;;;;;;;0.67;0.60;;;21.00;35.50;;;;;;5074554;28;20438;-73
2022/04/19 12:39:01;;;;;;;0.60;0.60;;;20.70;36.10;;;;;;5074589;28;20485;-73
2022/04/19 12:41:36;;;;;;;0.70;0.67;;;20.70;38.20;;;;;;5075036;28;20928;-72
2022/04/19 12:44:03;;;;;;;0.60;0.60;;;21.10;35.10;;;;;;5074354;28;20449;-73
2022/04/19 12:46:31;;;;;;;0.70;0.70;;;21.50;35.60;;;;;;5074324;28;20979;-73
2022/04/19 12:48:59;;;;;;;1.23;0.77;;;21.60;35.50;;;;;;5076263;28;20464;-73
2022/04/19 12:51:26;;;;;;;0.77;0.77;;;21.90;34.70;;;;;;5074245;28;20469;-73
2022/04/19 12:54:06;;;;;;;0.70;0.70;;;22.10;34.10;;;;;;5074114;28;20479;-73
2022/04/19 12:56:33;;;;;;;1.00;0.80;;;22.20;34.70;;;;;;5074145;28;20440;-73
2022/04/19 12:59:01;;;;;;;0.70;0.60;;;22.20;34.10;;;;;;5074366;28;20485;-73
2022/04/19 13:01:27;;;;;;;0.67;0.60;;;22.40;35.30;;;;;;5074018;28;20520;-73
2022/04/19 13:03:56;;;;;;;0.70;0.60;;;22.40;34.10;;;;;;5074205;28;20816;-73
2022/04/19 13:14:35;;;;;;;0.60;0.60;;;22.20;34.20;;;;;;5073953;28;20407;-74
2022/04/19 13:17:03;;;;;;;0.70;0.70;;;21.90;33.30;;;;;;5073750;28;20520;-72
2022/04/19 13:19:31;;;;;;;0.70;0.70;;;21.90;34.50;;;;;;5073968;28;20484;-73
2022/04/19 13:21:57;;;;;;;0.67;0.67;;;21.80;34.40;;;;;;5074415;28;20474;-73
2022/04/19 13:24:24;;;;;;;0.60;0.60;;;21.80;35.20;;;;;;5073957;28;20519;-73
2022/04/19 13:26:51;;;;;;;0.70;0.70;;;21.70;33.20;;;;;;5073037;28;20855;-73
2022/04/19 13:29:17;;;;;;;0.70;0.60;;;21.50;35.10;;;;;;5073218;28;20819;-73
2022/04/19 13:31:44;;;;;;;1.00;0.70;;;21.70;35.10;;;;;;5073193;28;21027;-73
2022/04/19 13:34:11;;;;;;;0.80;0.70;;;21.90;35.30;;;;;;5073456;28;20940;-73
2022/04/19 13:36:39;;;;;;;0.87;0.87;;;22.00;35.80;;;;;;5073707;28;20449;-73
2022/04/19 13:39:06;;;;;;;0.60;0.60;;;22.20;34.80;;;;;;5073370;28;20513;-73
2022/04/19 13:41:36;;;;;;;0.70;0.70;;;22.10;33.60;;;;;;5073926;28;20461;-73
2022/04/19 13:44:02;;;;;;;0.70;0.70;;;21.60;34.90;;;;;;5074016;28;20454;-74
2022/04/19 13:46:29;;;;;;;0.73;0.73;;;21.60;34.50;;;;;;5074474;28;20818;-73
2022/04/19 13:48:56;;;;;;;0.70;0.70;;;21.20;35.20;;;;;;5074130;28;20446;-73
2022/04/19 13:51:23;;;;;;;0.73;0.70;;;21.30;35.60;;;;;;5074072;28;20470;-73
2022/04/19 13:53:51;;;;;;;0.70;0.70;;;21.70;35.30;;;;;;5074000;28;20457;-74
2022/04/19 13:56:17;;;;;;;0.70;0.70;;;21.90;36.00;;;;;;5074363;28;20445;-73
2022/04/19 13:58:44;;;;;;;0.70;0.70;;;22.10;35.50;;;;;;5074070;28;20480;-73
2022/04/19 14:01:11;;;;;;;0.70;0.70;;;22.30;34.90;;;;;;5073762;28;20978;-74
2022/04/19 14:03:37;;;;;;;0.63;0.60;;;22.60;33.30;;;;;;5074151;28;20481;-73
2022/04/19 14:06:04;;;;;;;0.70;0.60;;;22.70;33.00;;;;;;5074349;28;20567;-73
2022/04/19 14:08:32;;;;;;;0.60;0.60;;;23.00;34.40;;;;;;5074107;28;20452;-73
2022/04/19 14:11:00;;;;;;;0.70;0.60;;;23.10;33.00;;;;;;5072544;28;20788;-73
2022/04/19 14:13:28;;;;;;;0.60;0.60;;;23.40;32.70;;;;;;5072968;28;20453;-73
2022/04/19 14:15:55;;;;;;;0.83;0.60;;;23.40;33.00;;;;;;5072881;28;20445;-74
2022/04/19 14:18:21;;;;;;;0.70;0.70;;;23.40;33.10;;;;;;5073002;28;20472;-73
2022/04/19 14:20:49;;;;;;;0.67;0.60;;;23.70;32.60;;;;;;5072419;28;20910;-73
2022/04/19 14:23:16;;;;;;;0.60;0.60;;;23.80;31.70;;;;;;5072881;28;20524;-74
2022/04/19 14:25:42;;;;;;;0.70;0.63;;;24.00;32.00;;;;;;5072760;28;20446;-73
2022/04/19 14:28:10;;;;;;;0.70;0.57;;;23.60;31.30;;;;;;5072832;28;20462;-73
2022/04/19 14:33:22;;;;;;;0.70;0.70;;;23.90;32.20;;;;;;5072681;28;20425;-73
2022/04/19 14:35:50;;;;;;;1.00;0.70;;;24.10;32.30;;;;;;5072957;28;20449;-73
2022/04/19 14:38:16;;;;;;;0.70;0.70;;;24.20;32.30;;;;;;5073221;28;20453;-73
2022/04/19 14:40:43;;;;;;;0.60;0.60;;;24.40;32.30;;;;;;5076548;28;20488;-73
2022/04/19 14:43:11;;;;;;;0.70;0.70;;;24.40;32.30;;;;;;5076618;28;20457;-73
2022/04/19 14:45:38;;;;;;;0.70;0.60;;;24.50;32.50;;;;;;5076387;28;20867;-73
2022/04/19 14:48:05;;;;;;;0.80;0.70;;;24.50;32.80;;;;;;5076620;28;20495;-73
2022/04/19 14:50:32;;;;;;;0.77;0.70;;;24.80;32.70;;;;;;5076581;28;20461;-74
2022/04/19 14:52:58;;;;;;;0.60;0.60;;;25.30;32.30;;;;;;5076630;28;20453;-74
2022/04/19 14:55:25;;;;;;;0.80;0.70;;;25.80;32.40;;;;;;5076144;28;20449;-74
2022/04/19 14:57:52;;;;;;;1.00;0.83;;;26.20;31.20;;;;;;5076364;28;20492;-74
2022/04/19 15:00:20;;;;;;;0.70;0.70;;;27.00;31.20;;;;;;5075897;28;20481;-74
2022/04/19 15:02:47;;;;;;;0.97;0.70;;;27.80;30.40;;;;;;5075960;28;20817;-74
2022/04/19 15:05:14;;;;;;;0.70;0.70;;;28.80;29.60;;;;;;5076403;28;20445;-73
2022/04/19 15:07:40;;;;;;;0.60;0.60;;;29.50;29.20;;;;;;5076193;28;20498;-74
2022/04/19 15:10:08;;;;;;;0.60;0.60;;;30.10;28.70;;;;;;5076338;28;20441;-74
2022/04/19 15:12:34;;;;;;;0.80;0.70;;;30.60;28.00;;;;;;5076201;28;20449;-74
2022/04/19 15:15:01;;;;;;;1.13;0.70;;;30.70;27.40;;;;;;5076399;28;20453;-74
2022/04/19 15:17:29;;;;;;;0.80;0.77;;;31.00;26.80;;;;;;5076421;28;20453;-74
2022/04/19 15:19:56;;;;;;;1.00;0.67;;;30.90;27.70;;;;;;5076084;28;20484;-74
2022/04/19 15:22:23;;;;;;;0.73;0.73;;;30.90;27.20;;;;;;5075829;28;20445;-74
2022/04/19 15:24:49;;;;;;;0.70;0.67;;;30.50;27.30;;;;;;5075877;28;20442;-74
2022/04/19 15:27:17;;;;;;;0.60;0.60;;;29.30;28.40;;;;;;5075802;28;20456;-74
2022/04/19 15:29:44;;;;;;;0.67;0.63;;;28.90;28.80;;;;;;5075919;28;20528;-73
2022/04/19 15:32:13;;;;;;;0.60;0.60;;;28.70;29.80;;;;;;5075248;28;20485;-74
2022/04/19 15:34:41;;;;;;;0.70;0.70;;;28.50;29.40;;;;;;5075669;28;20455;-74
2022/04/19 15:37:08;;;;;;;0.70;0.70;;;27.30;29.90;;;;;;5075578;28;20528;-73
2022/04/19 15:39:35;;;;;;;0.90;0.70;;;26.50;31.20;;;;;;5075497;28;20489;-73
2022/04/19 15:42:02;;;;;;;0.70;0.70;;;25.60;31.80;;;;;;5075192;28;20783;-73
2022/04/19 15:44:29;;;;;;;1.03;0.60;;;24.50;32.80;;;;;;5075274;28;20480;-74
2022/04/19 15:46:56;;;;;;;0.70;0.70;;;23.90;34.40;;;;;;5075212;28;20544;-74
2022/04/19 15:49:23;;;;;;;0.70;0.70;;;23.50;35.20;;;;;;5074731;28;20442;-74
2022/04/19 15:51:51;;;;;;;1.10;0.80;;;22.70;36.10;;;;;;5075345;28;20469;-73
2022/04/19 15:54:17;;;;;;;0.70;0.70;;;22.10;36.70;;;;;;5075329;28;20491;-73
2022/04/19 15:56:45;;;;;;;0.70;0.70;;;22.00;36.90;;;;;;5075457;28;20549;-73
2022/04/19 15:59:11;;;;;;;0.80;0.80;;;22.00;36.40;;;;;;5075100;28;20830;-73
2022/04/19 16:01:38;;;;;;;0.70;0.70;;;21.40;37.80;;;;;;5074857;28;20858;-73
2022/04/19 16:04:05;;;;;;;0.80;0.80;;;20.80;38.00;;;;;;5075045;28;20499;-73
2022/04/19 16:06:32;;;;;;;0.70;0.70;;;20.20;38.70;;;;;;5075253;28;20445;-72
2022/04/19 16:09:00;;;;;;;0.80;0.80;;;20.30;39.50;;;;;;5074990;28;20468;-73
2022/04/19 16:11:26;;;;;;;0.70;0.70;;;19.80;39.90;;;;;;5074585;28;20818;-73
2022/04/19 16:13:53;;;;;;;0.70;0.67;;;19.70;40.00;;;;;;5075019;28;20449;-73
2022/04/19 16:24:34;;;;;;;0.60;0.60;;;20.10;39.60;;;;;;5074982;28;20409;-73
2022/04/19 16:27:01;;;;;;;0.70;0.70;;;20.30;39.20;;;;;;5074710;28;20449;-73
2022/04/19 16:29:28;;;;;;;2.40;0.70;;;20.40;38.90;;;;;;5074706;28;20438;-73
2022/04/19 16:31:54;;;;;;;2.00;0.67;;;20.40;39.10;;;;;;5074203;28;20485;-72
2022/04/19 16:34:21;;;;;;;0.70;0.70;;;20.30;39.10;;;;;;5074658;28;20528;-72
2022/04/19 16:36:47;;;;;;;0.63;0.60;;;20.10;39.20;;;;;;5074400;28;20442;-74
2022/04/19 16:39:14;;;;;;;0.60;0.60;;;20.10;39.00;;;;;;5074436;28;20441;-73
2022/04/19 16:41:42;;;;;;;0.70;0.70;;;19.90;39.90;;;;;;5074466;28;20557;-73
2022/04/19 16:44:09;;;;;;;0.60;0.60;;;19.70;40.50;;;;;;5074327;28;20532;-73
2022/04/19 16:46:36;;;;;;;0.70;0.67;;;19.60;40.90;;;;;;5074197;28;20502;-73
2022/04/19 16:49:03;;;;;;;0.60;0.57;;;19.30;40.60;;;;;;5074229;28;20441;-73
2022/04/19 16:51:29;;;;;;;0.80;0.80;;;19.40;40.90;;;;;;5074236;28;20470;-73
2022/04/19 16:53:56;;;;;;;0.70;0.70;;;19.50;40.20;;;;;;5074115;28;20453;-73
2022/04/19 16:56:23;;;;;;;0.67;0.60;;;19.60;39.80;;;;;;5075247;28;20446;-73